Time;durP1;ratioP1;P1;durP2;ratioP2;P2;SDS_P1;SDS_P2;PMS_P1;PMS_P2;Temp;Humidity;BMP_temperature;BMP_pressure;BME280_temperature;BME280_humidity;BME280_pressure;Samples;Min_cycle;Max_cycle;Signal;HPM_P1;HPM_P2
2024/04/11 00:02:15;;;;;;;9.18;3.97;;;;;;;;;;5283041;27;20018;-81
2024/04/11 00:04:40;;;;;;;12.10;3.72;;;;;;;;;;5282618;27;20010;-81
2024/04/11 00:07:06;;;;;;;10.40;4.25;;;;;;;;;;5304701;26;20005;-80
2024/04/11 00:09:32;;;;;;;8.80;3.97;;;;;;;;;;5317223;26;20000;-82
2024/04/11 00:11:57;;;;;;;13.13;3.80;;;;;;;;;;5316970;26;20004;-80
2024/04/11 00:14:24;;;;;;;9.52;4.85;;;;;;;;;;5357737;26;20454;-82
2024/04/11 00:16:50;;;;;;;11.00;3.83;;;;;;;;;;5350388;26;20077;-81
2024/04/11 00:19:15;;;;;;;7.38;3.35;;;;;;;;;;5350341;26;20364;-80
2024/04/11 00:21:43;;;;;;;10.77;4.40;;;;;;;;;;5322705;26;20082;-81
2024/04/11 00:24:09;;;;;;;12.93;3.90;;;;;;;;;;5380006;26;20044;-80
2024/04/11 00:26:35;;;;;;;9.48;3.70;;;;;;;;;;5350057;26;20360;-82
2024/04/11 00:29:02;;;;;;;13.93;4.22;;;;;;;;;;5348198;26;20014;-81
2024/04/11 00:31:28;;;;;;;10.45;4.45;;;;;;;;;;5296765;26;20017;-81
2024/04/11 00:34:12;;;;;;;11.25;4.60;;;;;;;;;;5254686;26;20009;-79
2024/04/11 00:36:41;;;;;;;11.25;5.07;;;;;;;;;;5312422;26;20024;-80
2024/04/11 00:39:07;;;;;;;;;;;;;;;;;;5254097;27;20518;-80
2024/04/11 00:41:32;;;;;;;14.55;4.07;;;;;;;;;;5282052;27;19934;-80
2024/04/11 00:43:59;;;;;;;11.27;4.22;;;;;;;;;;5253705;26;20337;-79
2024/04/11 00:46:27;;;;;;;10.52;4.30;;;;;;;;;;5278793;26;20012;-79
2024/04/11 00:48:54;;;;;;;9.05;4.10;;;;;;;;;;5344041;26;20350;-81
2024/04/11 00:51:20;;;;;;;12.15;4.85;;;;;;;;;;5321709;26;20015;-81
2024/04/11 00:53:46;;;;;;;11.20;4.68;;;;;;;;;;5316955;26;20004;-79
2024/04/11 00:56:13;;;;;;;8.63;4.20;;;;;;;;;;5287338;26;20067;-81
2024/04/11 00:58:38;;;;;;;7.82;4.90;;;;;;;;;;5344249;26;20026;-81
2024/04/11 01:01:04;;;;;;;15.10;4.45;;;;;;;;;;5316036;26;20001;-81
2024/04/11 01:03:30;;;;;;;14.80;4.38;;;;;;;;;;5315977;26;20001;-79
2024/04/11 01:05:56;;;;;;;10.85;3.83;;;;;;;;;;5343126;26;20027;-80
2024/04/11 01:08:25;;;;;;;10.73;4.10;;;;;;;;;;5335467;26;20008;-81
2024/04/11 01:10:51;;;;;;;12.23;4.60;;;;;;;;;;5328280;26;20460;-80
2024/04/11 01:13:19;;;;;;;10.80;4.57;;;;;;;;;;5302651;26;20022;-81
2024/04/11 01:15:46;;;;;;;9.13;4.43;;;;;;;;;;5326523;26;20009;-80
2024/04/11 01:18:12;;;;;;;9.30;3.95;;;;;;;;;;5286946;26;20565;-81
2024/04/11 01:20:37;;;;;;;11.25;4.75;;;;;;;;;;5286972;26;20033;-82
2024/04/11 01:23:03;;;;;;;9.30;4.38;;;;;;;;;;5344583;26;20008;-80
2024/04/11 01:25:29;;;;;;;8.15;4.10;;;;;;;;;;5378608;26;20011;-80
2024/04/11 01:27:55;;;;;;;11.18;4.68;;;;;;;;;;5320949;26;20004;-80
2024/04/11 01:30:21;;;;;;;9.65;4.07;;;;;;;;;;5349918;26;20004;-80
2024/04/11 01:32:48;;;;;;;13.10;4.50;;;;;;;;;;5349347;26;20481;-81
2024/04/11 01:35:15;;;;;;;11.27;5.03;;;;;;;;;;5378490;26;20016;-81
2024/04/11 01:37:42;;;;;;;10.77;4.40;;;;;;;;;;5321032;26;20455;-81
2024/04/11 01:40:08;;;;;;;11.85;4.20;;;;;;;;;;5346258;26;20006;-80
2024/04/11 01:42:34;;;;;;;9.68;4.20;;;;;;;;;;5311649;27;20083;-81
2024/04/11 01:45:01;;;;;;;12.90;4.43;;;;;;;;;;5312133;26;20037;-80
2024/04/11 01:47:27;;;;;;;13.65;5.93;;;;;;;;;;5284526;27;19997;-80
2024/04/11 01:49:54;;;;;;;10.80;4.75;;;;;;;;;;5312889;26;20001;-82
2024/04/11 01:52:20;;;;;;;12.55;4.88;;;;;;;;;;5314240;26;20002;-81
2024/04/11 01:54:45;;;;;;;13.73;4.80;;;;;;;;;;5332473;26;20005;-80
2024/04/11 01:57:11;;;;;;;10.38;4.38;;;;;;;;;;5345993;26;20012;-82
2024/04/11 01:59:36;;;;;;;8.02;4.50;;;;;;;;;;5346985;26;20020;-79
2024/04/11 02:02:02;;;;;;;7.78;4.63;;;;;;;;;;5347115;26;20009;-81
2024/04/11 02:04:30;;;;;;;16.55;7.68;;;;;;;;;;5346755;26;20340;-79
2024/04/11 02:06:56;;;;;;;13.07;5.90;;;;;;;;;;5369636;26;20344;-80
2024/04/11 02:09:23;;;;;;;10.27;4.82;;;;;;;;;;5383590;26;20019;-81
2024/04/11 02:11:53;;;;;;;13.32;5.68;;;;;;;;;;5381505;26;20438;-80
2024/04/11 02:14:19;;;;;;;9.32;5.03;;;;;;;;;;5381606;26;20073;-81
2024/04/11 02:16:44;;;;;;;9.25;4.50;;;;;;;;;;5383440;26;20036;-79
2024/04/11 02:19:12;;;;;;;11.48;4.60;;;;;;;;;;5383341;26;20019;-79
2024/04/11 02:21:40;;;;;;;7.72;4.35;;;;;;;;;;5381396;26;20004;-82
2024/04/11 02:24:06;;;;;;;10.27;4.75;;;;;;;;;;5381383;26;20478;-81
2024/04/11 02:26:34;;;;;;;12.93;5.70;;;;;;;;;;5323443;26;20015;-81
2024/04/11 02:29:01;;;;;;;12.05;4.57;;;;;;;;;;5323408;26;20000;-81
2024/04/11 02:31:26;;;;;;;11.88;4.50;;;;;;;;;;5352672;26;20328;-80
2024/04/11 02:33:53;;;;;;;11.63;4.88;;;;;;;;;;5312978;26;20013;-80
2024/04/11 02:36:19;;;;;;;11.93;4.68;;;;;;;;;;5311715;27;20013;-79
2024/04/11 02:38:45;;;;;;;9.35;4.13;;;;;;;;;;5312454;26;20006;-80
2024/04/11 02:41:11;;;;;;;8.85;4.25;;;;;;;;;;5284000;27;20094;-80
2024/04/11 02:43:39;;;;;;;10.50;4.93;;;;;;;;;;5255672;27;20080;-79
2024/04/11 02:46:15;;;;;;;14.45;5.40;;;;;;;;;;5316853;26;20178;-80
2024/04/11 02:48:44;;;;;;;10.55;4.55;;;;;;;;;;5312210;26;20084;-81
2024/04/11 02:51:10;;;;;;;8.32;4.25;;;;;;;;;;5283790;26;20006;-81
2024/04/11 02:53:38;;;;;;;9.15;4.80;;;;;;;;;;5283519;27;20017;-81
2024/04/11 02:56:07;;;;;;;12.55;4.47;;;;;;;;;;5312368;26;20007;-79
2024/04/11 02:58:33;;;;;;;;;;;;;;;;;;5314311;26;20009;-79
2024/04/11 03:01:03;;;;;;;10.90;4.90;;;;;;;;;;5339721;26;20001;-80
2024/04/11 03:03:33;;;;;;;11.52;4.22;;;;;;;;;;5334357;26;20012;-80
2024/04/11 03:06:10;;;;;;;13.57;5.03;;;;;;;;;;5381059;26;20019;-81
2024/04/11 03:08:35;;;;;;;8.68;4.68;;;;;;;;;;5352765;26;20004;-81
2024/04/11 03:11:01;;;;;;;9.60;3.92;;;;;;;;;;5353259;26;20008;-81
2024/04/11 03:13:27;;;;;;;13.18;4.72;;;;;;;;;;5380459;26;20012;-79
2024/04/11 03:15:56;;;;;;;7.90;3.58;;;;;;;;;;5323415;26;20073;-80
2024/04/11 03:18:22;;;;;;;9.45;4.55;;;;;;;;;;5352008;26;20082;-80
2024/04/11 03:20:54;;;;;;;10.50;3.80;;;;;;;;;;5329795;26;20021;-81
2024/04/11 03:23:20;;;;;;;12.05;4.80;;;;;;;;;;5394443;26;20012;-80
2024/04/11 03:25:45;;;;;;;12.13;4.53;;;;;;;;;;5393926;26;20503;-81
2024/04/11 03:28:11;;;;;;;11.45;4.78;;;;;;;;;;5367820;26;20012;-81
2024/04/11 03:30:37;;;;;;;11.40;4.32;;;;;;;;;;5367035;26;20008;-80
2024/04/11 03:33:02;;;;;;;9.85;4.57;;;;;;;;;;5397968;26;20012;-80
2024/04/11 03:35:32;;;;;;;11.77;4.32;;;;;;;;;;5361126;26;20004;-80
2024/04/11 03:37:58;;;;;;;13.93;4.93;;;;;;;;;;5313387;26;20092;-80
2024/04/11 03:40:24;;;;;;;11.82;4.30;;;;;;;;;;5353419;26;20011;-79
2024/04/11 03:42:50;;;;;;;9.82;4.22;;;;;;;;;;5286856;27;20016;-79
2024/04/11 03:45:22;;;;;;;10.13;5.07;;;;;;;;;;5345858;26;20452;-81
2024/04/11 03:47:48;;;;;;;10.40;4.70;;;;;;;;;;5317393;26;20001;-80
2024/04/11 03:50:14;;;;;;;11.68;4.53;;;;;;;;;;5290125;26;20011;-81
2024/04/11 03:52:40;;;;;;;10.25;4.03;;;;;;;;;;5323923;26;20013;-79
2024/04/11 03:55:08;;;;;;;9.10;3.92;;;;;;;;;;5332039;26;20017;-78
2024/04/11 03:57:35;;;;;;;10.93;5.00;;;;;;;;;;5314825;26;20033;-80
2024/04/11 04:00:07;;;;;;;13.60;4.72;;;;;;;;;;5284656;26;20079;-79
2024/04/11 04:02:37;;;;;;;11.85;4.20;;;;;;;;;;5312123;27;20026;-80
2024/04/11 04:05:03;;;;;;;12.95;4.18;;;;;;;;;;5313978;26;20016;-81
2024/04/11 04:07:29;;;;;;;10.20;4.65;;;;;;;;;;5319096;27;20038;-80
2024/04/11 04:09:56;;;;;;;10.20;4.30;;;;;;;;;;5290012;27;20006;-80
2024/04/11 04:12:23;;;;;;;11.25;4.63;;;;;;;;;;5316021;26;20042;-80
2024/04/11 04:14:48;;;;;;;9.13;4.05;;;;;;;;;;5290828;27;20013;-81
2024/04/11 04:17:16;;;;;;;10.32;5.35;;;;;;;;;;5319753;26;20012;-80
2024/04/11 04:19:42;;;;;;;10.60;4.17;;;;;;;;;;5326588;26;20009;-79
2024/04/11 04:22:13;;;;;;;9.95;4.38;;;;;;;;;;5348928;26;20411;-80
2024/04/11 04:24:42;;;;;;;12.52;4.32;;;;;;;;;;5318710;26;20014;-79
2024/04/11 04:27:07;;;;;;;;;;;;;;;;;;5318996;26;20024;-81
2024/04/11 04:29:35;;;;;;;9.52;3.97;;;;;;;;;;5346466;26;20190;-80
2024/04/11 04:32:01;;;;;;;14.77;4.57;;;;;;;;;;5312283;27;20021;-81
2024/04/11 04:34:27;;;;;;;10.15;4.75;;;;;;;;;;5311922;26;20017;-81
2024/04/11 04:36:55;;;;;;;9.00;4.97;;;;;;;;;;5270806;26;20008;-79
2024/04/11 04:39:30;;;;;;;14.23;6.30;;;;;;;;;;5337415;26;20045;-81
2024/04/11 04:41:59;;;;;;;8.80;4.10;;;;;;;;;;5311368;26;20016;-78
2024/04/11 04:44:28;;;;;;;9.55;3.95;;;;;;;;;;5319881;26;20029;-80
2024/04/11 04:46:53;;;;;;;10.00;4.35;;;;;;;;;;5316685;26;20012;-80
2024/04/11 04:49:19;;;;;;;7.93;4.05;;;;;;;;;;5288526;26;20005;-78
2024/04/11 04:51:46;;;;;;;9.40;4.97;;;;;;;;;;5345255;26;20001;-81
2024/04/11 04:54:13;;;;;;;10.70;4.40;;;;;;;;;;5288658;26;20001;-78
2024/04/11 04:56:40;;;;;;;9.48;3.90;;;;;;;;;;5316887;26;20001;-79
2024/04/11 04:59:09;;;;;;;8.85;4.43;;;;;;;;;;5288390;26;20005;-81
2024/04/11 05:01:35;;;;;;;12.18;4.15;;;;;;;;;;5339922;26;20021;-80
2024/04/11 05:04:00;;;;;;;12.70;4.63;;;;;;;;;;5311526;26;20005;-81
2024/04/11 05:06:28;;;;;;;12.85;4.35;;;;;;;;;;5311327;26;20020;-81
2024/04/11 05:08:55;;;;;;;12.63;4.47;;;;;;;;;;5284010;26;20453;-79
2024/04/11 05:11:25;;;;;;;6.72;3.65;;;;;;;;;;5312578;26;20010;-79
2024/04/11 05:13:51;;;;;;;8.30;3.90;;;;;;;;;;5341451;26;20083;-81
2024/04/11 05:16:21;;;;;;;8.80;4.40;;;;;;;;;;5294652;27;20001;-81
2024/04/11 05:18:47;;;;;;;11.93;4.03;;;;;;;;;;5287885;27;20090;-80
2024/04/11 05:21:18;;;;;;;12.77;6.88;;;;;;;;;;5300306;26;20017;-79
2024/04/11 05:23:44;;;;;;;11.57;5.07;;;;;;;;;;5342007;26;20009;-80
2024/04/11 05:26:14;;;;;;;12.20;4.10;;;;;;;;;;5352638;26;20475;-81
2024/04/11 05:28:45;;;;;;;14.48;4.13;;;;;;;;;;5351020;26;20045;-82
2024/04/11 05:31:14;;;;;;;8.80;4.80;;;;;;;;;;5310297;26;20008;-80
2024/04/11 05:33:41;;;;;;;9.68;4.43;;;;;;;;;;5374048;26;20017;-80
2024/04/11 05:36:12;;;;;;;9.57;4.43;;;;;;;;;;5327153;26;20024;-80
2024/04/11 05:38:38;;;;;;;14.20;4.20;;;;;;;;;;5354461;26;20084;-81
2024/04/11 05:41:04;;;;;;;13.00;4.10;;;;;;;;;;5302551;26;20025;-83
2024/04/11 05:43:30;;;;;;;11.35;4.22;;;;;;;;;;5357361;26;20001;-81
2024/04/11 05:45:57;;;;;;;16.08;4.28;;;;;;;;;;5326297;26;20008;-82
2024/04/11 05:48:24;;;;;;;14.13;5.00;;;;;;;;;;5321808;26;20013;-80
2024/04/11 05:50:54;;;;;;;12.20;5.60;;;;;;;;;;5351039;26;20431;-83
2024/04/11 05:53:20;;;;;;;12.35;3.58;;;;;;;;;;5328008;26;20005;-79
2024/04/11 05:55:46;;;;;;;10.07;4.10;;;;;;;;;;5343272;26;20017;-81
2024/04/11 05:58:12;;;;;;;13.38;4.40;;;;;;;;;;5325701;26;20005;-81
2024/04/11 06:00:39;;;;;;;14.27;4.13;;;;;;;;;;5352863;26;20008;-81
2024/04/11 06:03:11;;;;;;;10.68;4.00;;;;;;;;;;5299588;26;20344;-81
2024/04/11 06:05:39;;;;;;;11.00;3.72;;;;;;;;;;5288825;26;20028;-81
2024/04/11 06:08:07;;;;;;;12.48;5.15;;;;;;;;;;5295313;26;20012;-80
2024/04/11 06:10:34;;;;;;;10.10;3.97;;;;;;;;;;5323175;26;20013;-80
2024/04/11 06:13:01;;;;;;;11.38;4.03;;;;;;;;;;5322964;26;20005;-79
2024/04/11 06:15:28;;;;;;;11.68;4.28;;;;;;;;;;5291017;26;20127;-81
2024/04/11 06:17:54;;;;;;;7.85;3.78;;;;;;;;;;5337172;26;20013;-81
2024/04/11 06:20:24;;;;;;;11.65;3.63;;;;;;;;;;5354614;26;20801;-78
2024/04/11 06:22:55;;;;;;;9.73;4.00;;;;;;;;;;5326785;26;20029;-80
2024/04/11 06:25:21;;;;;;;8.07;3.80;;;;;;;;;;5351861;26;20041;-81
2024/04/11 06:27:47;;;;;;;9.50;4.18;;;;;;;;;;5305986;26;20449;-81
2024/04/11 06:30:14;;;;;;;12.52;4.10;;;;;;;;;;5320956;26;20013;-78
2024/04/11 06:32:43;;;;;;;13.65;4.20;;;;;;;;;;5297759;26;20092;-81
2024/04/11 06:35:09;;;;;;;10.88;4.13;;;;;;;;;;5354648;26;20012;-81
2024/04/11 06:37:35;;;;;;;10.75;3.70;;;;;;;;;;5322251;27;20009;-80
2024/04/11 06:40:11;;;;;;;13.13;3.83;;;;;;;;;;5295754;26;20028;-82
2024/04/11 06:42:50;;;;;;;10.88;3.58;;;;;;;;;;5298759;26;20508;-83
2024/04/11 06:45:16;;;;;;;6.82;3.60;;;;;;;;;;5330594;26;20009;-81
2024/04/11 06:47:43;;;;;;;13.70;3.92;;;;;;;;;;5338081;26;20009;-81
2024/04/11 06:50:09;;;;;;;7.38;3.38;;;;;;;;;;5320687;27;20068;-82
2024/04/11 06:52:36;;;;;;;12.63;4.55;;;;;;;;;;5327362;26;20001;-83
2024/04/11 06:55:03;;;;;;;11.02;3.80;;;;;;;;;;5288803;26;20090;-79
2024/04/11 06:57:36;;;;;;;9.07;3.45;;;;;;;;;;5344900;26;20005;-81
2024/04/11 07:00:03;;;;;;;13.98;3.80;;;;;;;;;;5350967;26;20024;-80
2024/04/11 07:02:30;;;;;;;7.82;3.60;;;;;;;;;;5350486;26;20005;-81
2024/04/11 07:04:58;;;;;;;14.65;3.63;;;;;;;;;;5321908;26;20001;-81
2024/04/11 07:07:27;;;;;;;10.23;3.63;;;;;;;;;;5345559;26;20008;-82
2024/04/11 07:09:55;;;;;;;10.48;4.15;;;;;;;;;;5294577;26;20019;-82
2024/04/11 07:12:28;;;;;;;10.52;3.60;;;;;;;;;;5288837;26;20040;-81
2024/04/11 07:14:57;;;;;;;9.00;3.00;;;;;;;;;;5303776;26;20005;-79
2024/04/11 07:17:27;;;;;;;10.40;3.15;;;;;;;;;;5288426;26;20028;-81
2024/04/11 07:19:54;;;;;;;8.57;3.25;;;;;;;;;;5319468;26;20009;-82
2024/04/11 07:22:24;;;;;;;10.73;3.15;;;;;;;;;;5296242;26;20012;-81
2024/04/11 07:24:50;;;;;;;9.85;3.45;;;;;;;;;;5347108;26;20012;-81
2024/04/11 07:27:17;;;;;;;6.72;3.47;;;;;;;;;;5297334;26;20016;-81
2024/04/11 07:29:47;;;;;;;10.27;2.97;;;;;;;;;;5325407;26;20001;-81
2024/04/11 07:32:13;;;;;;;9.98;3.10;;;;;;;;;;5346773;26;20473;-81
2024/04/11 07:34:38;;;;;;;12.93;3.15;;;;;;;;;;5361826;26;20065;-82
2024/04/11 07:37:06;;;;;;;7.10;3.40;;;;;;;;;;5322439;26;20059;-80
2024/04/11 07:39:32;;;;;;;9.07;3.22;;;;;;;;;;5318129;26;20010;-80
2024/04/11 07:42:18;;;;;;;7.75;2.53;;;;;;;;;;5326823;26;20563;-81
2024/04/11 07:44:43;;;;;;;8.93;2.80;;;;;;;;;;5288998;27;20468;-80
2024/04/11 07:47:08;;;;;;;9.65;2.80;;;;;;;;;;5289280;26;20009;-79
2024/04/11 07:49:35;;;;;;;8.40;2.72;;;;;;;;;;5349269;26;20019;-81
2024/04/11 07:52:02;;;;;;;9.38;3.08;;;;;;;;;;5319790;26;20027;-80
2024/04/11 07:54:29;;;;;;;10.43;3.70;;;;;;;;;;5347077;26;20023;-80
2024/04/11 07:56:55;;;;;;;10.23;2.58;;;;;;;;;;5355621;26;20055;-81
2024/04/11 07:59:22;;;;;;;8.40;2.72;;;;;;;;;;5353406;26;20020;-82
2024/04/11 08:01:47;;;;;;;6.38;2.50;;;;;;;;;;5353823;26;20005;-82
2024/04/11 08:04:13;;;;;;;5.60;1.73;;;;;;;;;;5325637;26;20016;-81
2024/04/11 08:06:39;;;;;;;8.38;1.80;;;;;;;;;;5351740;26;20305;-79
2024/04/11 08:09:08;;;;;;;8.80;2.28;;;;;;;;;;5307911;26;20018;-80
2024/04/11 08:11:34;;;;;;;4.45;1.70;;;;;;;;;;5329811;26;20082;-81
2024/04/11 08:14:05;;;;;;;5.10;1.52;;;;;;;;;;5303475;26;20405;-82
2024/04/11 08:16:36;;;;;;;9.10;2.13;;;;;;;;;;5293335;26;20009;-82
2024/04/11 08:19:03;;;;;;;6.05;1.83;;;;;;;;;;5322742;26;20013;-82
2024/04/11 08:21:30;;;;;;;9.45;2.22;;;;;;;;;;5323957;26;20019;-81
2024/04/11 08:23:56;;;;;;;8.48;2.20;;;;;;;;;;5295473;26;20005;-81
2024/04/11 08:26:22;;;;;;;7.45;2.10;;;;;;;;;;5296203;26;20083;-80
2024/04/11 08:28:48;;;;;;;8.07;2.10;;;;;;;;;;5324003;26;20016;-81
2024/04/11 08:31:15;;;;;;;10.75;2.85;;;;;;;;;;5308379;26;20013;-80
2024/04/11 08:33:42;;;;;;;5.85;2.05;;;;;;;;;;5318512;26;20010;-81
2024/04/11 08:36:09;;;;;;;4.15;2.00;;;;;;;;;;5329650;26;20004;-80
2024/04/11 08:38:35;;;;;;;8.25;2.28;;;;;;;;;;5323714;26;20032;-81
2024/04/11 08:41:08;;;;;;;4.50;1.63;;;;;;;;;;5294741;26;20017;-82
2024/04/11 08:43:35;;;;;;;11.30;1.90;;;;;;;;;;5355525;26;20008;-83
2024/04/11 08:46:06;;;;;;;3.58;1.70;;;;;;;;;;5358879;26;20004;-82
2024/04/11 08:48:38;;;;;;;7.63;1.60;;;;;;;;;;5327560;26;20069;-82
2024/04/11 08:51:24;;;;;;;4.28;1.45;;;;;;;;;;5297423;26;20015;-83
2024/04/11 08:53:54;;;;;;;5.05;1.48;;;;;;;;;;5366197;26;20019;-82
2024/04/11 08:56:21;;;;;;;5.10;1.52;;;;;;;;;;5292804;26;20068;-82
2024/04/11 08:58:48;;;;;;;5.10;1.15;;;;;;;;;;5326132;26;20029;-82
2024/04/11 09:01:15;;;;;;;5.25;1.35;;;;;;;;;;5363981;26;20029;-82
2024/04/11 09:03:41;;;;;;;6.00;1.40;;;;;;;;;;5312481;26;20081;-82
2024/04/11 09:06:13;;;;;;;4.43;1.30;;;;;;;;;;5305578;26;20017;-81
2024/04/11 09:08:40;;;;;;;3.65;1.35;;;;;;;;;;5331044;26;20008;-83
2024/04/11 09:11:09;;;;;;;5.50;1.77;;;;;;;;;;5333352;26;20490;-83
2024/04/11 09:13:36;;;;;;;9.88;1.30;;;;;;;;;;5342495;26;20005;-81
2024/04/11 09:16:05;;;;;;;7.80;1.80;;;;;;;;;;5308579;26;20013;-83
2024/04/11 09:18:33;;;;;;;7.93;1.50;;;;;;;;;;5330535;26;20043;-83
2024/04/11 09:21:04;;;;;;;4.75;1.10;;;;;;;;;;5365911;26;20341;-82
2024/04/11 09:23:34;;;;;;;6.47;1.70;;;;;;;;;;5324073;26;20005;-83
2024/04/11 09:26:03;;;;;;;5.10;1.35;;;;;;;;;;5321879;26;20005;-83
2024/04/11 09:28:31;;;;;;;11.02;1.60;;;;;;;;;;5292823;26;20005;-82
2024/04/11 09:30:58;;;;;;;5.57;1.10;;;;;;;;;;5286301;27;20020;-81
2024/04/11 09:33:34;;;;;;;3.45;1.17;;;;;;;;;;5288687;27;19998;-81
2024/04/11 09:36:03;;;;;;;7.30;1.30;;;;;;;;;;5314599;26;20002;-83
2024/04/11 09:38:29;;;;;;;;;;;;;;;;;;5290163;27;20467;-82
2024/04/11 09:40:55;;;;;;;12.00;1.70;;;;;;;;;;5287597;26;19996;-81
2024/04/11 09:43:27;;;;;;;6.63;1.55;;;;;;;;;;5285989;27;20001;-80
2024/04/11 09:45:56;;;;;;;3.95;1.25;;;;;;;;;;5314942;26;20009;-82
2024/04/11 09:48:24;;;;;;;4.78;1.20;;;;;;;;;;5320736;26;20005;-81
2024/04/11 09:50:54;;;;;;;5.50;1.20;;;;;;;;;;5292295;26;20049;-83
2024/04/11 09:53:26;;;;;;;7.53;1.60;;;;;;;;;;5322496;26;20504;-83
2024/04/11 09:56:08;;;;;;;8.50;1.67;;;;;;;;;;5348698;26;20115;-80
2024/04/11 09:58:38;;;;;;;5.65;1.30;;;;;;;;;;5319341;26;20020;-83
2024/04/11 10:01:32;;;;;;;9.52;1.90;;;;;;;;;;5320114;26;20005;-83
2024/04/11 10:04:00;;;;;;;5.65;1.30;;;;;;;;;;5294022;26;20009;-82
2024/04/11 10:06:29;;;;;;;6.72;1.50;;;;;;;;;;5351185;26;20059;-80
2024/04/11 10:09:17;;;;;;;7.47;1.00;;;;;;;;;;5321952;26;20013;-81
2024/04/11 10:11:45;;;;;;;3.85;1.48;;;;;;;;;;5323913;26;20009;-81
2024/04/11 10:14:20;;;;;;;4.50;1.40;;;;;;;;;;5353538;26;20056;-81
2024/04/11 10:16:51;;;;;;;10.30;1.80;;;;;;;;;;5323230;26;20354;-79
2024/04/11 10:19:26;;;;;;;6.18;1.60;;;;;;;;;;5290504;27;20025;-80
2024/04/11 10:21:54;;;;;;;7.32;1.45;;;;;;;;;;5267630;26;20005;-80
2024/04/11 10:24:37;;;;;;;6.82;1.95;;;;;;;;;;5290751;27;20041;-80
2024/04/11 10:27:09;;;;;;;5.10;1.58;;;;;;;;;;5314673;26;20012;-80
2024/04/11 10:29:36;;;;;;;4.70;1.42;;;;;;;;;;5314339;26;20006;-81
2024/04/11 10:32:02;;;;;;;4.72;1.20;;;;;;;;;;5314111;26;20190;-82
2024/04/11 10:34:45;;;;;;;11.00;1.60;;;;;;;;;;5315273;26;20020;-79
2024/04/11 10:37:14;;;;;;;9.82;1.63;;;;;;;;;;5318427;26;20021;-80
2024/04/11 10:39:39;;;;;;;4.63;1.38;;;;;;;;;;5342004;26;20021;-79
2024/04/11 10:42:10;;;;;;;6.82;1.48;;;;;;;;;;5258173;27;20360;-80
2024/04/11 10:44:36;;;;;;;3.13;0.98;;;;;;;;;;5257781;27;20017;-78
2024/04/11 10:47:08;;;;;;;8.07;1.38;;;;;;;;;;5313895;26;20002;-82
2024/04/11 10:49:37;;;;;;;5.28;1.20;;;;;;;;;;5258020;27;20019;-81
2024/04/11 10:52:05;;;;;;;4.70;1.13;;;;;;;;;;5314658;26;20002;-80
2024/04/11 10:54:33;;;;;;;3.97;1.10;;;;;;;;;;5295846;26;20020;-80
2024/04/11 10:57:02;;;;;;;8.97;1.10;;;;;;;;;;5318673;26;20000;-79
2024/04/11 10:59:32;;;;;;;5.22;1.10;;;;;;;;;;5352326;26;20004;-79
2024/04/11 11:02:10;;;;;;;6.20;1.10;;;;;;;;;;5294804;26;20076;-81
2024/04/11 11:04:43;;;;;;;5.38;1.20;;;;;;;;;;5300215;26;20011;-81
2024/04/11 11:07:12;;;;;;;4.78;1.20;;;;;;;;;;5295194;26;20008;-81
2024/04/11 11:09:42;;;;;;;6.72;1.30;;;;;;;;;;5283999;26;20021;-81
2024/04/11 11:12:11;;;;;;;4.38;1.23;;;;;;;;;;5284506;27;20002;-80
2024/04/11 11:14:36;;;;;;;;;;;;;;;;;;5289508;26;20013;-79
2024/04/11 11:17:02;;;;;;;4.25;1.13;;;;;;;;;;5347371;26;19926;-81
2024/04/11 11:19:34;;;;;;;2.85;0.90;;;;;;;;;;5290360;26;20013;-78
2024/04/11 11:22:00;;;;;;;4.60;1.02;;;;;;;;;;5319404;26;20013;-80
2024/04/11 11:24:29;;;;;;;3.83;1.02;;;;;;;;;;5289311;26;20078;-81
2024/04/11 11:26:55;;;;;;;3.60;1.00;;;;;;;;;;5288932;26;20009;-80
2024/04/11 11:29:25;;;;;;;6.03;1.52;;;;;;;;;;5288133;26;20012;-81
2024/04/11 11:32:01;;;;;;;4.15;1.08;;;;;;;;;;5346156;26;20020;-81
2024/04/11 11:34:30;;;;;;;7.50;1.08;;;;;;;;;;5317734;26;20345;-82
2024/04/11 11:36:59;;;;;;;8.70;1.00;;;;;;;;;;5317512;26;20009;-80
2024/04/11 11:39:36;;;;;;;4.75;1.02;;;;;;;;;;5318009;26;20049;-80
2024/04/11 11:47:34;;;;;;;6.53;1.10;;;;;;;;;;5319061;26;20016;-81
2024/04/11 11:50:01;;;;;;;5.85;1.40;;;;;;;;;;5320030;26;20013;-81
2024/04/11 11:52:31;;;;;;;10.40;1.33;;;;;;;;;;5341780;26;20025;-81
2024/04/11 11:54:58;;;;;;;6.18;1.15;;;;;;;;;;5341665;26;20468;-80
2024/04/11 11:57:30;;;;;;;4.53;1.38;;;;;;;;;;5311853;26;20012;-81
2024/04/11 11:59:57;;;;;;;6.07;1.15;;;;;;;;;;5284773;26;20489;-83
2024/04/11 12:02:23;;;;;;;5.35;0.95;;;;;;;;;;5318960;26;20530;-83
2024/04/11 12:04:52;;;;;;;3.78;1.05;;;;;;;;;;5317563;26;20008;-80
2024/04/11 12:07:19;;;;;;;5.55;1.08;;;;;;;;;;5317476;26;20016;-81
2024/04/11 12:09:51;;;;;;;5.25;1.17;;;;;;;;;;5318565;26;20095;-79
2024/04/11 12:12:30;;;;;;;3.83;1.10;;;;;;;;;;5319177;26;20008;-82
2024/04/11 12:14:55;;;;;;;4.38;1.42;;;;;;;;;;5346592;26;20479;-80
2024/04/11 12:17:24;;;;;;;4.90;1.27;;;;;;;;;;5316923;26;20012;-81
2024/04/11 12:19:51;;;;;;;10.45;1.50;;;;;;;;;;5292251;26;20044;-82
2024/04/11 12:22:18;;;;;;;8.38;1.60;;;;;;;;;;5341089;26;20473;-81
2024/04/11 12:24:50;;;;;;;6.68;1.83;;;;;;;;;;5311754;26;20017;-81
2024/04/11 12:27:16;;;;;;;16.38;2.50;;;;;;;;;;5291429;27;20045;-81
2024/04/11 12:29:42;;;;;;;5.47;1.10;;;;;;;;;;5295600;26;20468;-79
2024/04/11 12:32:08;;;;;;;7.13;1.40;;;;;;;;;;5313912;26;20005;-81
2024/04/11 12:34:37;;;;;;;4.30;1.10;;;;;;;;;;5313271;26;20015;-80
2024/04/11 12:37:16;;;;;;;3.17;0.93;;;;;;;;;;5286539;27;20006;-80
2024/04/11 12:39:54;;;;;;;4.70;1.10;;;;;;;;;;5257684;27;20484;-81
2024/04/11 12:42:23;;;;;;;7.70;1.38;;;;;;;;;;5255705;27;20385;-81
2024/04/11 12:44:52;;;;;;;5.55;0.98;;;;;;;;;;5312749;26;20001;-82
2024/04/11 12:47:30;;;;;;;;;;;;;;;;;;5328102;26;20389;-82
2024/04/11 12:49:58;;;;;;;7.35;1.08;;;;;;;;;;5319959;26;19964;-82
2024/04/11 12:52:23;;;;;;;6.13;1.63;;;;;;;;;;5291132;26;20526;-81
2024/04/11 12:54:50;;;;;;;5.32;1.00;;;;;;;;;;5288336;26;20044;-81
2024/04/11 12:57:17;;;;;;;4.47;1.33;;;;;;;;;;5316431;26;19997;-81
2024/04/11 12:59:46;;;;;;;8.27;1.75;;;;;;;;;;5316842;26;20440;-82
2024/04/11 13:02:19;;;;;;;4.80;1.00;;;;;;;;;;5317128;26;20408;-82
2024/04/11 13:04:54;;;;;;;6.13;1.30;;;;;;;;;;5315388;26;20001;-82
2024/04/11 13:07:21;;;;;;;6.93;1.10;;;;;;;;;;5317879;26;20001;-80
2024/04/11 13:09:53;;;;;;;5.60;1.48;;;;;;;;;;5288952;26;20005;-82
2024/04/11 13:12:19;;;;;;;5.57;1.35;;;;;;;;;;5288509;26;20001;-80
2024/04/11 13:14:55;;;;;;;3.63;1.00;;;;;;;;;;5315303;26;20513;-82
2024/04/11 13:17:23;;;;;;;5.30;1.35;;;;;;;;;;5317645;26;20007;-83
2024/04/11 13:19:56;;;;;;;10.50;1.25;;;;;;;;;;5289813;26;20001;-83
2024/04/11 13:22:26;;;;;;;7.18;1.42;;;;;;;;;;5318285;26;20079;-80
2024/04/11 13:25:10;;;;;;;6.70;1.65;;;;;;;;;;5288257;26;19997;-82
2024/04/11 13:27:40;;;;;;;8.25;1.60;;;;;;;;;;5317997;26;20011;-83
2024/04/11 13:30:12;;;;;;;4.40;1.17;;;;;;;;;;5320764;26;20005;-82
2024/04/11 13:32:45;;;;;;;7.05;1.50;;;;;;;;;;5301339;26;20004;-81
2024/04/11 13:35:22;;;;;;;5.63;1.10;;;;;;;;;;5352912;26;20004;-82
2024/04/11 13:37:48;;;;;;;4.53;1.10;;;;;;;;;;5325904;26;20021;-81
2024/04/11 13:43:00;;;;;;;5.55;1.23;;;;;;;;;;5388239;26;20011;-82
2024/04/11 13:45:25;;;;;;;5.13;1.30;;;;;;;;;;5320863;26;20041;-82
2024/04/11 13:47:51;;;;;;;2.80;1.00;;;;;;;;;;5320727;26;20012;-81
2024/04/11 13:50:35;;;;;;;5.80;1.20;;;;;;;;;;5287779;26;20010;-80
2024/04/11 13:53:05;;;;;;;5.47;1.30;;;;;;;;;;5315585;27;20017;-82
2024/04/11 13:55:32;;;;;;;2.72;0.98;;;;;;;;;;5314592;26;20002;-81
2024/04/11 13:57:59;;;;;;;4.97;1.17;;;;;;;;;;5314054;26;20287;-81
2024/04/11 14:00:33;;;;;;;7.72;1.20;;;;;;;;;;5287151;27;20002;-82
2024/04/11 14:02:59;;;;;;;4.80;1.25;;;;;;;;;;5336853;26;20087;-82
2024/04/11 14:05:45;;;;;;;3.13;1.13;;;;;;;;;;5259111;27;20566;-82
2024/04/11 14:08:14;;;;;;;6.47;1.25;;;;;;;;;;5288392;27;20006;-82
2024/04/11 14:10:41;;;;;;;4.78;1.35;;;;;;;;;;5288256;27;20567;-81
2024/04/11 14:13:07;;;;;;;8.60;1.77;;;;;;;;;;5259020;27;20012;-83
2024/04/11 14:15:32;;;;;;;5.57;1.50;;;;;;;;;;5286682;26;20101;-80
2024/04/11 14:17:58;;;;;;;10.30;1.42;;;;;;;;;;5287088;27;19998;-81
2024/04/11 14:20:31;;;;;;;6.68;1.25;;;;;;;;;;5312351;26;20120;-83
2024/04/11 14:23:14;;;;;;;6.60;1.30;;;;;;;;;;5343732;26;20009;-82
2024/04/11 14:25:43;;;;;;;7.57;1.70;;;;;;;;;;5293432;26;20008;-82
2024/04/11 14:28:18;;;;;;;5.70;1.25;;;;;;;;;;5286892;27;20021;-82
2024/04/11 14:30:54;;;;;;;7.03;1.35;;;;;;;;;;5349418;26;20334;-82
2024/04/11 14:34:19;;;;;;;6.03;1.20;;;;;;;;;;5321095;26;20006;-82
2024/04/11 14:38:38;;;;;;;7.43;1.60;;;;;;;;;;5319984;27;19998;-81
2024/04/11 14:41:04;;;;;;;5.45;1.65;;;;;;;;;;5317199;26;20076;-80
2024/04/11 14:43:33;;;;;;;5.40;1.45;;;;;;;;;;5293072;26;20053;-79
2024/04/11 14:45:59;;;;;;;;;;;;;;;;;;5315523;26;20018;-79
2024/04/11 14:48:33;;;;;;;4.25;1.20;;;;;;;;;;5287955;26;19933;-82
2024/04/11 14:51:03;;;;;;;8.30;1.30;;;;;;;;;;5286209;27;20011;-82
2024/04/11 14:53:33;;;;;;;15.40;1.80;;;;;;;;;;5320151;26;19998;-82
2024/04/11 14:56:14;;;;;;;4.90;1.58;;;;;;;;;;5289656;27;20013;-82
2024/04/11 14:58:42;;;;;;;5.53;1.27;;;;;;;;;;5300595;26;20000;-81
2024/04/11 15:01:16;;;;;;;9.18;1.85;;;;;;;;;;5357231;26;20025;-81